Time;durP1;ratioP1;P1;durP2;ratioP2;P2;SDS_P1;SDS_P2;PMS_P1;PMS_P2;Temp;Humidity;BMP_temperature;BMP_pressure;BME280_temperature;BME280_humidity;BME280_pressure;Samples;Min_cycle;Max_cycle;Signal;HPM_P1;HPM_P2
2022/04/11 00:01:30;;;;;;;4.25;3.03;;;;;;;8.36;41.71;101224.81;4878623;29;19916;-86
2022/04/11 00:04:15;;;;;;;3.97;2.30;;;;;;;8.39;41.79;101226.94;4873724;29;20064;-84
2022/04/11 00:07:01;;;;;;;3.72;1.90;;;;;;;8.36;42.02;101224.00;4885083;29;20051;-84
2022/04/11 00:09:46;;;;;;;5.05;2.83;;;;;;;8.41;40.40;101222.06;4870006;29;20060;-84
2022/04/11 00:12:34;;;;;;;4.63;2.08;;;;;;;8.62;39.76;101227.25;4876067;29;20060;-84
2022/04/11 00:15:19;;;;;;;4.47;2.78;;;;;;;8.63;39.69;101218.84;4871891;29;20060;-83
2022/04/11 00:18:04;;;;;;;3.10;2.00;;;;;;;8.58;40.15;101211.53;4882605;29;20067;-84
2022/04/11 00:20:49;;;;;;;3.97;2.20;;;;;;;8.57;39.85;101219.97;4865474;29;20065;-84
2022/04/11 00:23:34;;;;;;;5.40;2.83;;;;;;;8.56;40.05;101218.38;4865458;29;20052;-85
2022/04/11 00:26:19;;;;;;;4.18;1.88;;;;;;;8.42;40.80;101212.84;4851527;29;20565;-83
2022/04/11 00:29:04;;;;;;;2.83;1.80;;;;;;;8.55;40.21;101211.31;4866722;29;20060;-85
2022/04/11 00:31:49;;;;;;;2.53;1.90;;;;;;;8.54;40.17;101210.50;4884417;29;20052;-84
2022/04/11 00:34:34;;;;;;;5.18;2.10;;;;;;;8.43;40.58;101213.66;4869596;29;20040;-83
2022/04/11 00:37:19;;;;;;;3.85;2.50;;;;;;;8.31;41.14;101215.94;4873322;29;20064;-84
2022/04/11 00:40:05;;;;;;;11.77;2.30;;;;;;;8.00;41.34;101204.59;4871121;29;20063;-84
2022/04/11 00:42:50;;;;;;;3.63;2.30;;;;;;;7.66;42.57;101216.25;4873899;29;20069;-84
2022/04/11 00:45:35;;;;;;;3.38;2.03;;;;;;;7.39;43.53;101213.22;4873179;29;20089;-85
2022/04/11 00:48:20;;;;;;;3.67;2.22;;;;;;;7.78;43.75;101207.75;4870332;29;20055;-84
2022/04/11 00:51:08;;;;;;;4.82;2.72;;;;;;;7.73;43.86;101216.72;4868426;29;20048;-84
2022/04/11 00:53:58;;;;;;;8.07;2.80;;;;;;;7.56;43.68;101218.25;4872788;29;20048;-84
2022/04/11 00:56:44;;;;;;;5.82;3.00;;;;;;;7.39;43.51;101221.34;4871456;29;20047;-84
2022/04/11 00:59:29;;;;;;;3.97;2.45;;;;;;;7.55;42.68;101222.84;4869544;29;20517;-84
2022/04/11 01:02:14;;;;;;;3.47;2.40;;;;;;;7.43;42.70;101219.69;4863758;29;20049;-84
2022/04/11 01:04:59;;;;;;;2.33;1.98;;;;;;;7.78;43.74;101228.59;4864838;29;20057;-85
2022/04/11 01:07:44;;;;;;;2.85;1.95;;;;;;;7.69;42.73;101225.69;4867105;29;20072;-85
2022/04/11 01:10:29;;;;;;;3.33;1.95;;;;;;;7.98;41.12;101225.72;4875567;29;20055;-85
2022/04/11 01:13:15;;;;;;;5.18;1.63;;;;;;;8.00;40.71;101237.06;4888911;29;20056;-84
2022/04/11 01:16:03;;;;;;;5.28;2.30;;;;;;;8.19;40.67;101229.84;4882078;29;20056;-83
2022/04/11 01:18:48;;;;;;;4.88;2.85;;;;;;;8.21;40.27;101224.16;4882259;29;20533;-84
2022/04/11 01:21:33;;;;;;;7.17;2.33;;;;;;;8.18;40.42;101228.22;4872142;29;20056;-84
2022/04/11 01:24:21;;;;;;;4.90;2.00;;;;;;;8.20;40.59;101227.94;4874134;29;20056;-83
2022/04/11 01:27:07;;;;;;;7.82;2.35;;;;;;;7.92;40.16;101224.97;4872843;29;20059;-85
2022/04/11 01:29:52;;;;;;;4.60;2.22;;;;;;;7.99;40.01;101227.34;4870964;29;20057;-85
2022/04/11 01:32:38;;;;;;;4.03;2.40;;;;;;;7.78;41.20;101225.88;4878458;29;20052;-85
2022/04/11 01:35:25;;;;;;;5.47;2.88;;;;;;;7.77;41.09;101237.84;4876934;29;20426;-84
2022/04/11 01:38:12;;;;;;;3.45;2.55;;;;;;;7.77;40.85;101233.22;4874593;29;20064;-85
2022/04/11 01:40:57;;;;;;;2.53;1.65;;;;;;;8.00;40.21;101237.06;4885949;29;20056;-84
2022/04/11 01:43:42;;;;;;;4.47;2.45;;;;;;;8.04;40.67;101230.00;4871227;29;20056;-85
2022/04/11 01:46:27;;;;;;;2.40;1.48;;;;;;;8.10;40.29;101231.56;4885711;29;20060;-85
2022/04/11 01:49:17;;;;;;;3.65;2.40;;;;;;;8.09;40.20;101229.94;4871477;29;20071;-85
2022/04/11 01:52:03;;;;;;;3.40;2.25;;;;;;;8.32;40.13;101229.22;4876585;29;20056;-83
2022/04/11 01:54:47;;;;;;;;;;;;;;;8.33;39.95;101230.03;4874400;29;20064;-82
2022/04/11 01:57:32;;;;;;;5.03;2.50;;;;;;;8.28;40.92;101233.53;4872449;29;19915;-83
2022/04/11 02:00:17;;;;;;;4.18;1.90;;;;;;;8.26;41.34;101234.94;4884239;29;20055;-84
2022/04/11 02:03:05;;;;;;;3.58;2.33;;;;;;;8.29;40.88;101231.63;4873783;29;20051;-83
2022/04/11 02:05:51;;;;;;;4.43;2.22;;;;;;;8.26;40.78;101235.75;4872316;29;20044;-83
2022/04/11 02:08:35;;;;;;;3.88;2.08;;;;;;;8.24;41.11;101232.50;4870115;29;20056;-84
2022/04/11 02:11:25;;;;;;;3.25;2.40;;;;;;;8.17;40.86;101234.75;4887286;29;20056;-83
2022/04/11 02:14:10;;;;;;;2.22;1.58;;;;;;;8.10;41.10;101239.69;4854658;29;20052;-86
2022/04/11 02:16:55;;;;;;;3.65;1.48;;;;;;;7.93;41.57;101242.00;4858067;29;20066;-85
2022/04/11 02:19:40;;;;;;;5.07;2.13;;;;;;;7.75;42.34;101235.41;4856118;29;20112;-84
2022/04/11 02:22:25;;;;;;;2.63;1.73;;;;;;;7.61;42.76;101229.84;4860667;29;20553;-84
2022/04/11 02:25:11;;;;;;;3.42;1.70;;;;;;;7.83;42.83;101237.50;4884757;29;20052;-85
2022/04/11 02:27:59;;;;;;;4.78;2.10;;;;;;;8.02;41.79;101233.00;4884908;29;20060;-84
2022/04/11 02:30:44;;;;;;;3.63;2.15;;;;;;;7.97;41.54;101243.06;4873042;29;20060;-84
2022/04/11 02:33:29;;;;;;;2.75;1.90;;;;;;;8.04;41.62;101236.22;4870947;29;20477;-83
2022/04/11 02:36:14;;;;;;;6.17;1.33;;;;;;;7.83;43.37;101239.38;4874496;29;20064;-83
2022/04/11 02:38:59;;;;;;;3.42;1.42;;;;;;;7.87;42.05;101243.97;4884198;29;20060;-82
2022/04/11 02:41:44;;;;;;;3.35;1.73;;;;;;;7.87;42.45;101237.75;4866424;23;20057;-79
2022/04/11 02:44:29;;;;;;;3.33;2.17;;;;;;;7.89;43.08;101235.53;4816916;29;20061;-82
2022/04/11 02:47:14;;;;;;;4.47;1.40;;;;;;;7.74;44.01;101239.19;4825756;29;20058;-80
2022/04/11 02:49:58;;;;;;;3.30;1.80;;;;;;;7.99;42.75;101227.34;4816340;29;20515;-81
2022/04/11 02:53:01;;;;;;;3.65;2.70;;;;;;;7.76;43.97;101233.50;4823729;29;20066;-81
2022/04/11 02:55:46;;;;;;;2.17;1.98;;;;;;;8.03;42.34;101237.31;4837644;29;20050;-81
2022/04/11 02:58:31;;;;;;;3.45;1.52;;;;;;;7.57;44.78;101234.19;4828404;29;20069;-81
2022/04/11 03:01:16;;;;;;;3.53;1.85;;;;;;;7.52;43.79;101228.81;4825137;29;20057;-80
2022/04/11 03:04:04;;;;;;;3.88;1.70;;;;;;;7.70;44.34;101230.03;4824381;29;20057;-79
2022/04/11 03:07:05;;;;;;;2.97;1.80;;;;;;;7.73;43.83;101226.75;4830312;29;20060;-80
2022/04/11 03:09:50;;;;;;;2.80;1.50;;;;;;;7.83;42.46;101226.66;4825737;29;20057;-79
2022/04/11 03:12:37;;;;;;;2.60;1.35;;;;;;;7.59;43.93;101220.38;4838458;29;20065;-81
2022/04/11 03:15:25;;;;;;;3.53;1.80;;;;;;;7.84;42.64;101213.94;4840519;29;20049;-80
2022/04/11 03:18:10;;;;;;;4.10;1.55;;;;;;;7.77;44.16;101210.75;4825072;29;20071;-81
2022/04/11 03:20:57;;;;;;;3.20;2.13;;;;;;;7.85;43.02;101215.56;4829094;29;20072;-81
2022/04/11 03:23:42;;;;;;;2.30;1.40;;;;;;;7.90;43.67;101207.38;4840104;29;20063;-82
2022/04/11 03:26:27;;;;;;;2.70;1.50;;;;;;;8.08;42.21;101207.47;4806679;29;20057;-84
2022/04/11 03:29:13;;;;;;;2.95;2.08;;;;;;;8.00;42.35;101204.59;4811801;29;20058;-79
2022/04/11 03:31:58;;;;;;;7.53;2.85;;;;;;;8.15;42.12;101209.84;4806810;29;20063;-80
2022/04/11 03:34:45;;;;;;;3.97;2.13;;;;;;;7.99;42.34;101211.91;4812048;29;20045;-81
2022/04/11 03:37:30;;;;;;;2.40;2.03;;;;;;;8.17;41.85;101204.97;4836611;29;20062;-81
2022/04/11 03:40:26;;;;;;;4.03;2.17;;;;;;;8.13;41.86;101206.59;4839670;29;20053;-80
2022/04/11 03:43:14;;;;;;;3.05;2.00;;;;;;;8.02;42.39;101208.63;4846997;29;20057;-85
2022/04/11 03:46:01;;;;;;;3.53;1.63;;;;;;;7.87;43.12;101206.06;4828526;29;20054;-82
2022/04/11 03:48:46;;;;;;;4.07;1.25;;;;;;;7.74;44.95;101215.66;4832515;29;20550;-83
2022/04/11 03:51:32;;;;;;;3.53;1.70;;;;;;;7.81;44.49;101211.81;4830228;29;20069;-81
2022/04/11 03:54:17;;;;;;;7.85;2.00;;;;;;;7.66;45.48;101205.44;4829951;29;20519;-84
2022/04/11 03:57:02;;;;;;;3.20;2.03;;;;;;;7.62;45.56;101209.78;4829390;29;20073;-85
2022/04/11 03:59:47;;;;;;;5.30;2.05;;;;;;;7.70;45.28;101213.78;4827480;29;20053;-82
2022/04/11 04:02:32;;;;;;;3.72;1.83;;;;;;;7.60;45.43;101213.88;4826356;29;20061;-81
2022/04/11 04:05:17;;;;;;;6.30;2.10;;;;;;;7.70;46.02;101220.00;4825537;29;20070;-84
2022/04/11 04:08:04;;;;;;;3.05;2.00;;;;;;;7.62;44.78;101217.91;4840055;29;20054;-84
2022/04/11 04:10:49;;;;;;;4.15;2.17;;;;;;;7.77;45.41;101224.31;4824127;29;20057;-84
2022/04/11 04:13:34;;;;;;;7.32;2.53;;;;;;;8.10;47.42;101221.53;4825873;29;20065;-84
2022/04/11 04:16:20;;;;;;;9.18;2.80;;;;;;;7.90;43.39;101218.22;4826036;29;20560;-82
2022/04/11 04:19:13;;;;;;;3.65;1.98;;;;;;;7.98;43.07;101223.81;4815833;29;20070;-83
2022/04/11 04:21:59;;;;;;;6.40;2.17;;;;;;;7.80;43.01;101226.44;4827149;29;20061;-83
2022/04/11 04:24:44;;;;;;;3.03;1.90;;;;;;;7.94;42.40;101217.34;4825249;29;20057;-85
2022/04/11 04:27:29;;;;;;;4.30;1.80;;;;;;;7.81;42.81;101222.63;4824182;29;20062;-85
2022/04/11 04:30:15;;;;;;;3.25;1.70;;;;;;;8.02;42.98;101218.66;4824760;29;20061;-82
2022/04/11 04:33:00;;;;;;;5.72;2.22;;;;;;;8.17;41.23;101223.91;4825068;29;20511;-82
2022/04/11 04:35:45;;;;;;;2.80;1.77;;;;;;;8.22;41.06;101228.47;4823434;29;20614;-82
2022/04/11 04:38:30;;;;;;;2.40;1.77;;;;;;;8.18;41.75;101219.31;4827314;29;20534;-82
2022/04/11 04:41:15;;;;;;;3.58;1.52;;;;;;;8.06;42.57;101225.91;4825271;29;20073;-83
2022/04/11 04:44:00;;;;;;;4.10;1.90;;;;;;;7.95;43.60;101218.16;4842406;29;20103;-84
2022/04/11 04:46:45;;;;;;;13.23;2.28;;;;;;;7.90;42.60;101226.34;4824775;29;20133;-83
2022/04/11 04:49:45;;;;;;;8.18;2.67;;;;;;;7.95;42.12;101223.59;4807431;29;20062;-83
2022/04/11 04:52:33;;;;;;;4.35;1.50;;;;;;;8.04;42.21;101221.88;4805759;29;20523;-83
2022/04/11 04:55:23;;;;;;;4.50;1.88;;;;;;;7.99;42.20;101220.03;4805948;29;20050;-84
2022/04/11 04:58:08;;;;;;;5.28;1.95;;;;;;;7.84;42.27;101216.63;4816278;29;20057;-82
2022/04/11 05:00:53;;;;;;;3.88;2.10;;;;;;;7.78;42.64;101226.69;4827929;29;20053;-83
2022/04/11 05:03:41;;;;;;;3.45;2.45;;;;;;;7.75;42.76;101224.56;4826308;29;20053;-83
2022/04/11 05:06:27;;;;;;;7.20;2.13;;;;;;;7.92;42.14;101219.56;4823155;29;20522;-82
2022/04/11 05:09:13;;;;;;;3.30;1.73;;;;;;;8.06;41.74;101225.09;4823168;29;20065;-83
2022/04/11 05:12:00;;;;;;;3.38;2.75;;;;;;;8.18;41.73;101222.81;4838212;29;20531;-83
2022/04/11 05:14:45;;;;;;;8.85;2.95;;;;;;;8.29;41.85;101224.31;4805335;29;20715;-83
2022/04/11 05:17:33;;;;;;;10.57;2.42;;;;;;;8.31;42.25;101229.50;4809425;29;20532;-84
2022/04/11 05:20:18;;;;;;;5.95;1.90;;;;;;;8.38;41.59;101219.91;4825866;29;20057;-84
2022/04/11 05:23:03;;;;;;;26.70;3.92;;;;;;;8.41;41.25;101227.47;4822810;29;20050;-83
2022/04/11 05:25:55;;;;;;;41.63;5.95;;;;;;;8.50;40.89;101231.16;4822330;29;20054;-83
2022/04/11 05:28:40;;;;;;;17.80;4.88;;;;;;;8.59;41.19;101236.75;4823415;29;20061;-83
2022/04/11 05:31:25;;;;;;;12.82;3.20;;;;;;;9.03;41.60;101239.19;4824017;29;20061;-83
2022/04/11 05:34:15;;;;;;;43.15;4.53;;;;;;;8.93;41.70;101250.19;4841188;29;20058;-83
2022/04/11 05:36:59;;;;;;;17.35;2.58;;;;;;;9.05;41.81;101249.72;4840940;29;20057;-84
2022/04/11 05:39:44;;;;;;;11.30;2.08;;;;;;;9.14;41.45;101256.97;4827840;29;20073;-80
2022/04/11 05:42:29;;;;;;;19.48;2.30;;;;;;;9.22;42.83;101261.72;4822172;29;20744;-82
2022/04/11 05:45:15;;;;;;;6.75;2.75;;;;;;;9.62;40.90;101273.88;4825763;29;20065;-82
2022/04/11 05:47:59;;;;;;;8.45;2.35;;;;;;;9.73;39.81;101277.25;4836656;29;20061;-82
2022/04/11 05:50:45;;;;;;;6.38;4.45;;;;;;;9.95;39.26;101282.06;4822451;29;20057;-82
2022/04/11 05:53:30;;;;;;;7.65;3.10;;;;;;;10.30;37.77;101284.22;4823263;29;20543;-84
2022/04/11 05:56:15;;;;;;;13.95;5.97;;;;;;;10.58;37.28;101282.31;4828417;29;20083;-83
2022/04/11 05:59:03;;;;;;;5.38;2.20;;;;;;;10.77;37.06;101279.53;4823201;29;20058;-83
2022/04/11 06:01:49;;;;;;;10.60;3.35;;;;;;;11.11;35.87;101277.19;4825485;29;20053;-83
2022/04/11 06:04:34;;;;;;;6.65;3.67;;;;;;;11.44;35.48;101275.88;4828356;29;20081;-84
2022/04/11 06:07:21;;;;;;;9.25;3.65;;;;;;;11.77;34.95;101283.88;4822770;29;20054;-83
2022/04/11 06:10:08;;;;;;;18.92;3.55;;;;;;;12.25;34.23;101286.75;4827777;29;20057;-81
2022/04/11 06:12:54;;;;;;;5.40;2.53;;;;;;;12.62;32.79;101280.84;4822228;29;20053;-82
2022/04/11 06:15:39;;;;;;;12.77;4.10;;;;;;;12.32;33.85;101287.13;4822042;29;20057;-81
2022/04/11 06:18:24;;;;;;;5.40;2.05;;;;;;;12.72;32.92;101294.22;4825959;29;20057;-83
2022/04/11 06:21:10;;;;;;;16.95;4.50;;;;;;;13.07;34.11;101292.41;4825595;29;20062;-84
2022/04/11 06:23:55;;;;;;;;;;;;;;;13.53;33.13;101294.59;4827280;29;20054;-87
2022/04/11 06:26:43;;;;;;;7.15;3.75;;;;;;;14.04;31.94;101312.09;4829013;29;19925;-86
2022/04/11 06:29:29;;;;;;;4.63;2.80;;;;;;;14.63;31.13;101307.63;4829359;29;20416;-86
2022/04/11 06:32:14;;;;;;;9.07;2.58;;;;;;;15.21;30.56;101317.84;4841421;29;20057;-85
2022/04/11 06:35:00;;;;;;;5.20;3.22;;;;;;;16.09;28.49;101314.94;4831930;29;20049;-87
2022/04/11 06:37:45;;;;;;;6.03;2.83;;;;;;;18.94;24.68;101325.97;4830233;29;20057;-86
2022/04/11 06:40:29;;;;;;;18.88;3.10;;;;;;;22.07;22.38;101325.81;4840655;29;20061;-81
2022/04/11 06:43:15;;;;;;;7.97;3.25;;;;;;;24.04;18.89;101336.06;4856086;29;20061;-83
2022/04/11 06:46:16;;;;;;;8.05;3.10;;;;;;;25.53;17.08;101334.19;4838527;29;20125;-82
2022/04/11 06:49:02;;;;;;;10.68;2.58;;;;;;;26.58;15.66;101327.72;4847018;29;20057;-85
2022/04/11 06:51:48;;;;;;;7.65;3.08;;;;;;;27.69;15.00;101331.91;4837413;29;20053;-82
2022/04/11 06:54:33;;;;;;;16.63;3.20;;;;;;;27.92;14.56;101340.44;4835871;29;20053;-84
2022/04/11 06:57:18;;;;;;;14.18;3.03;;;;;;;28.16;14.11;101337.75;4833890;29;20057;-80
2022/04/11 07:00:04;;;;;;;10.98;2.50;;;;;;;28.35;13.96;101342.66;4849148;29;20061;-84
2022/04/11 07:02:50;;;;;;;6.25;2.65;;;;;;;28.47;14.00;101353.28;4833545;29;20058;-81
2022/04/11 07:05:36;;;;;;;4.28;2.33;;;;;;;28.22;13.58;101355.63;4832277;29;20061;-81
2022/04/11 07:08:20;;;;;;;6.63;2.13;;;;;;;28.28;13.61;101345.56;4835320;29;20049;-82
2022/04/11 07:11:06;;;;;;;7.95;2.70;;;;;;;27.14;14.41;101352.44;4845593;29;20057;-80
2022/04/11 07:13:51;;;;;;;7.60;1.95;;;;;;;28.66;13.49;101360.97;4827947;29;20113;-80
2022/04/11 07:16:36;;;;;;;11.63;2.03;;;;;;;29.88;11.44;101363.25;4832024;29;20050;-82
2022/04/11 07:19:21;;;;;;;15.70;4.78;;;;;;;29.28;11.65;101359.56;4825992;29;20054;-81
2022/04/11 07:22:06;;;;;;;71.50;14.60;;;;;;;30.20;11.48;101373.81;4838780;29;20054;-82
2022/04/11 07:24:51;;;;;;;10.15;3.30;;;;;;;21.37;19.15;101350.56;4827948;29;20443;-82
2022/04/11 07:27:36;;;;;;;6.22;2.45;;;;;;;18.98;22.44;101359.94;4827711;29;20057;-81
2022/04/11 07:30:22;;;;;;;4.70;2.42;;;;;;;18.19;23.04;101360.94;4826537;29;20071;-81
2022/04/11 07:33:08;;;;;;;3.85;2.40;;;;;;;17.81;23.07;101362.22;4838174;29;20058;-78
2022/04/11 07:35:52;;;;;;;6.65;2.63;;;;;;;17.48;22.59;101369.81;4830701;29;20061;-83
2022/04/11 07:38:38;;;;;;;6.90;2.30;;;;;;;16.27;21.77;101364.94;4838304;29;20061;-81
2022/04/11 07:41:24;;;;;;;8.75;2.33;;;;;;;16.24;22.43;101366.44;4824574;29;20053;-78
2022/04/11 07:44:08;;;;;;;4.05;2.67;;;;;;;16.50;23.17;101368.94;4839868;29;20057;-80
2022/04/11 07:46:53;;;;;;;12.40;2.58;;;;;;;25.09;15.07;101384.75;4824928;29;20049;-84
2022/04/11 07:49:40;;;;;;;6.30;3.22;;;;;;;28.07;12.17;101389.38;4822477;29;20069;-83
2022/04/11 07:52:26;;;;;;;8.15;2.88;;;;;;;28.94;11.67;101389.78;4824560;29;20059;-84
2022/04/11 07:55:15;;;;;;;12.77;3.33;;;;;;;30.84;10.44;101392.81;4838806;29;20102;-86
2022/04/11 07:58:00;;;;;;;6.95;3.45;;;;;;;31.74;10.08;101390.13;4829798;29;20424;-88
2022/04/11 08:00:50;;;;;;;5.28;3.58;;;;;;;32.34;9.59;101382.75;4830491;29;20065;-89
2022/04/11 08:03:35;;;;;;;8.25;3.45;;;;;;;33.79;8.70;101397.63;4825744;29;20154;-89
2022/04/11 08:06:20;;;;;;;10.70;4.32;;;;;;;34.08;8.86;101394.53;4824204;29;20091;-86
2022/04/11 08:09:05;;;;;;;6.72;4.32;;;;;;;37.66;6.99;101404.63;4830163;29;20057;-87
2022/04/11 08:11:49;;;;;;;8.85;4.07;;;;;;;32.38;9.29;101382.63;4839922;29;20062;-87
2022/04/11 08:14:34;;;;;;;6.85;4.38;;;;;;;35.36;8.08;101390.16;4829922;29;20053;-89
2022/04/11 08:17:19;;;;;;;7.20;4.68;;;;;;;32.96;9.78;101392.44;4827792;29;20057;-88
2022/04/11 08:20:04;;;;;;;9.13;5.03;;;;;;;34.48;9.13;101391.78;4829877;29;20472;-88
2022/04/11 08:22:49;;;;;;;8.25;4.63;;;;;;;36.15;7.36;101395.97;4824541;29;20121;-88
2022/04/11 08:25:34;;;;;;;5.75;4.13;;;;;;;34.68;8.68;101383.75;4828026;29;20053;-89
2022/04/11 08:28:20;;;;;;;8.88;4.78;;;;;;;35.75;8.09;101396.19;4826212;29;20560;-88
2022/04/11 08:31:04;;;;;;;7.10;4.60;;;;;;;35.90;7.83;101388.59;4824966;29;20053;-87
2022/04/11 08:33:49;;;;;;;8.75;4.93;;;;;;;37.93;6.89;101392.22;4829996;29;20057;-88
2022/04/11 08:36:34;;;;;;;8.85;4.72;;;;;;;37.28;7.39;101387.56;4825272;29;20077;-90
2022/04/11 08:39:19;;;;;;;13.38;5.43;;;;;;;37.70;6.96;101390.22;4837491;29;20061;-89
2022/04/11 08:42:04;;;;;;;10.40;5.07;;;;;;;36.48;7.80;101388.28;4850403;23;20061;-81
2022/04/11 08:44:55;;;;;;;7.03;5.03;;;;;;;36.28;7.41;101380.34;4837656;29;20061;-80
2022/04/11 08:47:40;;;;;;;8.63;5.32;;;;;;;36.91;7.69;101389.06;4838440;29;20056;-81
2022/04/11 08:50:26;;;;;;;10.00;5.40;;;;;;;37.03;7.48;101385.97;4840651;29;20062;-82
2022/04/11 08:53:11;;;;;;;15.40;5.68;;;;;;;38.33;6.67;101385.16;4835410;29;20053;-83
2022/04/11 08:55:56;;;;;;;7.47;3.60;;;;;;;34.82;6.68;101378.75;4822673;29;20077;-82
2022/04/11 08:58:40;;;;;;;6.50;3.58;;;;;;;33.39;7.77;101382.53;4820364;29;20057;-82
2022/04/11 09:01:25;;;;;;;6.53;3.42;;;;;;;35.04;6.54;101377.38;4823642;29;20077;-83
2022/04/11 09:04:10;;;;;;;4.90;2.80;;;;;;;36.39;5.35;101380.63;4825388;29;20048;-83
2022/04/11 09:06:59;;;;;;;6.88;2.15;;;;;;;34.98;6.14;101381.28;4835130;29;20057;-82
2022/04/11 09:09:44;;;;;;;11.73;2.90;;;;;;;33.03;7.36;101386.53;4822810;29;20055;-83
2022/04/11 09:12:29;;;;;;;5.63;2.85;;;;;;;30.91;8.31;101373.78;4837845;29;20061;-83
2022/04/11 09:15:15;;;;;;;2.95;2.30;;;;;;;31.41;7.70;101369.69;4832754;29;20046;-83
2022/04/11 09:18:00;;;;;;;3.67;2.22;;;;;;;33.43;7.04;101377.53;4833917;29;20060;-83
2022/04/11 09:20:45;;;;;;;3.95;2.30;;;;;;;32.49;6.91;101380.25;4821595;29;20059;-83
2022/04/11 09:23:30;;;;;;;4.10;1.80;;;;;;;34.90;6.33;101377.19;4841040;29;20064;-82
2022/04/11 09:26:16;;;;;;;3.53;1.75;;;;;;;34.22;6.17;101384.75;4834701;29;20053;-83
2022/04/11 09:29:04;;;;;;;4.47;2.42;;;;;;;33.85;6.56;101373.22;4847241;29;20065;-82
2022/04/11 09:31:49;;;;;;;4.68;2.50;;;;;;;35.27;6.10;101372.41;4844225;29;20056;-82
2022/04/11 09:34:35;;;;;;;6.97;2.42;;;;;;;33.62;7.29;101376.47;4845456;29;20431;-82
2022/04/11 09:37:23;;;;;;;4.28;2.45;;;;;;;32.32;7.60;101373.94;4838545;29;20128;-82
2022/04/11 09:40:08;;;;;;;4.43;2.28;;;;;;;34.09;6.93;101378.34;4836978;29;20061;-83
2022/04/11 09:42:57;;;;;;;5.30;2.67;;;;;;;31.14;8.58;101375.63;4839383;29;20053;-82
2022/04/11 09:45:47;;;;;;;4.60;2.20;;;;;;;33.62;7.67;101365.19;4841715;29;20061;-83
2022/04/11 09:48:36;;;;;;;4.55;2.85;;;;;;;32.77;7.38;101373.72;4838184;29;20066;-83
2022/04/11 09:51:22;;;;;;;4.65;2.28;;;;;;;34.56;7.29;101376.13;4842077;29;20061;-82
2022/04/11 09:54:26;;;;;;;3.65;2.38;;;;;;;34.39;7.01;101369.13;4844839;29;20053;-82
2022/04/11 09:57:13;;;;;;;5.93;2.55;;;;;;;36.49;6.38;101383.41;4851662;29;20048;-83
2022/04/11 10:00:00;;;;;;;3.85;2.63;;;;;;;35.95;6.73;101376.63;4844079;29;20041;-82
2022/04/11 10:02:59;;;;;;;4.18;2.33;;;;;;;37.81;5.61;101373.38;4854272;29;20061;-82
2022/04/11 10:05:45;;;;;;;3.33;2.20;;;;;;;36.99;5.94;101370.41;4844427;29;20062;-84
2022/04/11 10:08:31;;;;;;;4.10;2.17;;;;;;;37.29;5.65;101369.25;4841763;29;20072;-83
2022/04/11 10:11:18;;;;;;;5.60;2.80;;;;;;;38.56;5.19;101367.19;4840098;29;20052;-83
2022/04/11 10:14:05;;;;;;;3.53;2.03;;;;;;;38.91;4.93;101365.13;4848722;29;20060;-82
2022/04/11 10:16:52;;;;;;;5.07;2.17;;;;;;;38.33;4.52;101365.25;4842519;29;20058;-83
2022/04/11 10:19:39;;;;;;;3.80;2.30;;;;;;;37.55;5.51;101363.84;4836773;29;20148;-82
2022/04/11 10:22:27;;;;;;;7.63;2.78;;;;;;;35.38;6.44;101348.06;4855343;29;20057;-82
2022/04/11 10:25:15;;;;;;;4.80;2.85;;;;;;;36.36;6.21;101341.91;4844339;29;20072;-82
2022/04/11 10:28:16;;;;;;;6.50;2.30;;;;;;;37.19;5.52;101354.34;4846723;29;20057;-82
2022/04/11 10:31:10;;;;;;;3.90;2.25;;;;;;;39.71;4.40;101357.03;4854457;29;20077;-83
2022/04/11 10:33:56;;;;;;;5.70;2.13;;;;;;;37.77;5.33;101352.16;4841798;29;20053;-83
2022/04/11 10:36:41;;;;;;;10.23;2.03;;;;;;;35.00;6.46;101337.16;4854830;29;20060;-83
2022/04/11 10:39:27;;;;;;;5.45;2.13;;;;;;;36.28;6.05;101343.50;4844909;29;20073;-82
2022/04/11 10:42:19;;;;;;;3.47;2.28;;;;;;;37.85;4.95;101342.72;4855838;29;20057;-82
2022/04/11 10:45:30;;;;;;;3.15;2.20;;;;;;;37.66;5.62;101338.53;4845898;29;20052;-83
2022/04/11 10:48:17;;;;;;;6.47;2.50;;;;;;;40.41;4.27;101337.47;4852671;29;20061;-83
2022/04/11 10:51:15;;;;;;;3.60;2.45;;;;;;;37.33;5.64;101337.88;4838950;29;20053;-83
2022/04/11 10:54:21;;;;;;;5.90;2.65;;;;;;;35.55;6.63;101321.00;4853752;29;20061;-82
2022/04/11 10:57:09;;;;;;;3.70;2.50;;;;;;;39.57;4.91;101327.38;4840245;29;20439;-82
2022/04/11 11:00:22;;;;;;;4.47;3.08;;;;;;;37.82;6.26;101332.38;4842655;29;20068;-83
2022/04/11 11:03:09;;;;;;;6.43;3.05;;;;;;;40.95;4.81;101324.03;4839867;29;20053;-82
2022/04/11 11:05:54;;;;;;;5.82;2.65;;;;;;;40.45;5.19;101315.19;4843884;29;20065;-82
2022/04/11 11:08:39;;;;;;;4.88;2.58;;;;;;;39.82;5.19;101323.00;4842982;29;20052;-83
2022/04/11 11:11:27;;;;;;;6.97;2.70;;;;;;;40.23;5.02;101326.47;4855721;29;20057;-83
2022/04/11 11:14:43;;;;;;;3.42;2.42;;;;;;;40.23;4.91;101329.31;4853105;29;20396;-83
2022/04/11 11:17:58;;;;;;;6.03;2.88;;;;;;;40.44;4.77;101327.88;4840816;29;20057;-83
2022/04/11 11:20:53;;;;;;;4.70;3.10;;;;;;;39.17;5.94;101313.97;4842333;29;20133;-83
2022/04/11 11:23:38;;;;;;;3.92;2.83;;;;;;;36.64;7.22;101310.59;4839253;29;20076;-83
2022/04/11 11:26:29;;;;;;;7.70;2.97;;;;;;;34.25;8.60;101299.09;4851977;29;20053;-83
2022/04/11 11:29:15;;;;;;;4.72;3.03;;;;;;;38.23;5.96;101310.59;4841426;29;20423;-84
2022/04/11 11:32:05;;;;;;;8.50;3.10;;;;;;;38.57;5.84;101308.25;4837936;29;20547;-83
2022/04/11 11:34:51;;;;;;;6.32;3.17;;;;;;;36.73;6.46;101311.31;4842172;29;20056;-82
2022/04/11 11:37:35;;;;;;;4.75;2.75;;;;;;;41.10;4.98;101306.72;4841103;29;20049;-82
2022/04/11 11:40:23;;;;;;;4.28;3.45;;;;;;;38.74;5.38;101293.00;4838494;29;20056;-83
2022/04/11 11:43:12;;;;;;;4.55;3.20;;;;;;;40.00;4.89;101305.53;4836025;29;20049;-83
2022/04/11 11:45:59;;;;;;;4.00;2.75;;;;;;;40.69;4.43;101302.66;4836622;29;20061;-82
2022/04/11 11:48:47;;;;;;;8.35;3.53;;;;;;;41.57;4.83;101298.53;4847156;29;20056;-82
2022/04/11 11:51:31;;;;;;;5.07;3.17;;;;;;;39.20;5.37;101289.44;4832825;29;20064;-82
2022/04/11 11:54:38;;;;;;;4.63;3.45;;;;;;;39.83;5.59;101287.50;4838840;29;20056;-83
2022/04/11 11:57:28;;;;;;;5.22;3.85;;;;;;;41.64;5.00;101290.25;4846344;29;20049;-82
2022/04/11 12:00:13;;;;;;;6.65;3.55;;;;;;;43.78;4.02;101281.16;4839658;29;20052;-83
2022/04/11 12:06:03;;;;;;;4.97;2.90;;;;;;;38.68;5.96;101266.56;4853200;29;20065;-83
2022/04/11 12:08:56;;;;;;;10.40;3.40;;;;;;;38.78;6.10;101262.28;4853341;29;20052;-82
2022/04/11 12:11:41;;;;;;;4.75;3.08;;;;;;;37.18;6.34;101261.25;4837353;29;20053;-82
2022/04/11 12:14:26;;;;;;;7.00;2.88;;;;;;;39.23;5.84;101259.97;4838451;29;20060;-84
2022/04/11 12:17:11;;;;;;;7.15;3.25;;;;;;;40.28;5.16;101263.00;4842916;29;20056;-83
2022/04/11 12:20:09;;;;;;;3.38;2.70;;;;;;;37.78;5.99;101251.47;4843801;29;20056;-83
2022/04/11 12:23:10;;;;;;;7.38;3.17;;;;;;;37.69;6.30;101263.75;4838547;29;20045;-83
2022/04/11 12:25:54;;;;;;;4.97;2.90;;;;;;;37.88;6.42;101261.47;4840716;29;20057;-83
2022/04/11 12:28:40;;;;;;;5.88;2.92;;;;;;;35.54;7.74;101259.22;4839559;29;20049;-83
2022/04/11 12:31:25;;;;;;;7.95;2.42;;;;;;;37.18;6.73;101258.41;4843509;29;20459;-83
2022/04/11 12:34:12;;;;;;;5.38;3.30;;;;;;;35.23;7.38;101250.16;4841256;29;20057;-83
2022/04/11 12:36:59;;;;;;;13.73;3.72;;;;;;;37.77;6.34;101256.38;4851667;29;20057;-83
2022/04/11 12:39:56;;;;;;;4.68;3.13;;;;;;;37.15;5.97;101251.63;4840712;29;20045;-83
2022/04/11 12:42:41;;;;;;;4.75;2.72;;;;;;;37.71;6.06;101249.81;4839338;29;20061;-83
2022/04/11 12:45:26;;;;;;;4.57;3.40;;;;;;;38.40;5.37;101245.47;4852909;29;20052;-83
2022/04/11 12:48:11;;;;;;;14.10;3.05;;;;;;;39.54;4.93;101251.50;4841891;29;20053;-83
2022/04/11 12:51:10;;;;;;;9.63;3.90;;;;;;;39.21;5.00;101240.56;4840389;29;20052;-83
2022/04/11 12:54:04;;;;;;;10.55;3.20;;;;;;;38.73;5.82;101239.47;4838275;29;20057;-83
2022/04/11 12:56:50;;;;;;;10.82;3.15;;;;;;;38.84;5.31;101240.38;4838245;29;20056;-83
2022/04/11 12:59:39;;;;;;;8.15;3.72;;;;;;;37.55;5.69;101242.59;4839628;29;20061;-83
2022/04/11 13:02:38;;;;;;;5.88;3.28;;;;;;;38.79;5.10;101229.72;5139268;27;20376;-70
2022/04/11 13:05:25;;;;;;;7.90;3.35;;;;;;;38.64;5.44;101231.09;5154427;27;20038;-71
2022/04/11 13:08:11;;;;;;;6.90;3.20;;;;;;;30.86;9.88;101217.00;5140261;27;20045;-70